createdAt,value
2023-03-25T00:00:21.276Z,6.85
2023-03-25T00:02:52.432Z,7.77
2023-03-25T00:05:23.198Z,10.37
2023-03-25T00:07:54.014Z,10.07
2023-03-25T00:10:22.317Z,9.13
2023-03-25T00:12:52.529Z,9.13
2023-03-25T00:15:22.262Z,15.20
2023-03-25T00:17:50.749Z,11.73
2023-03-25T00:20:19.315Z,9.13
2023-03-25T00:22:47.550Z,9.83
2023-03-25T00:25:19.115Z,10.80
2023-03-25T00:27:50.858Z,8.83
2023-03-25T00:30:21.009Z,11.73
2023-03-25T00:32:52.693Z,10.98
2023-03-25T00:35:21.527Z,8.85
2023-03-25T00:37:57.726Z,10.87
2023-03-25T00:40:29.387Z,10.43
2023-03-25T00:42:58.536Z,10.10
2023-03-25T00:45:26.836Z,10.03
2023-03-25T00:47:55.354Z,10.63
2023-03-25T00:50:24.514Z,10.87
2023-03-25T00:52:54.557Z,8.37
2023-03-25T00:55:23.256Z,10.07
2023-03-25T00:57:52.834Z,8.57
2023-03-25T01:00:21.357Z,9.33
2023-03-25T01:02:53.820Z,12.03
2023-03-25T01:05:22.554Z,12.40
2023-03-25T01:07:51.744Z,11.90
2023-03-25T01:10:20.321Z,11.10
2023-03-25T01:12:48.602Z,12.10
2023-03-25T01:15:18.256Z,10.70
2023-03-25T01:17:46.549Z,14.10
2023-03-25T01:20:14.987Z,10.77
2023-03-25T01:22:43.277Z,9.95
2023-03-25T01:25:11.995Z,13.70
2023-03-25T01:27:40.378Z,12.48
2023-03-25T01:30:11.580Z,10.90
2023-03-25T01:32:41.159Z,9.13
2023-03-25T01:35:10.873Z,11.02
2023-03-25T01:37:39.515Z,9.57
2023-03-25T01:40:10.396Z,9.60
2023-03-25T01:42:38.749Z,11.60
2023-03-25T01:45:30.597Z,7.83
2023-03-25T01:48:10.368Z,8.15
2023-03-25T01:50:44.589Z,8.63
2023-03-25T01:53:13.407Z,9.10
2023-03-25T01:55:41.964Z,10.93
2023-03-25T01:58:15.209Z,7.37
2023-03-25T02:00:47.648Z,7.00
2023-03-25T02:03:22.662Z,10.13
2023-03-25T02:06:00.749Z,10.93
2023-03-25T02:08:32.524Z,7.13
2023-03-25T02:11:01.360Z,11.55
2023-03-25T02:13:29.889Z,9.48
2023-03-25T02:16:27.462Z,8.73
2023-03-25T02:19:27.992Z,10.30
2023-03-25T02:22:47.563Z,11.80
2023-03-25T02:25:36.742Z,13.13
2023-03-25T02:28:25.441Z,9.00
2023-03-25T02:31:50.691Z,8.83
2023-03-25T02:34:49.798Z,9.82
2023-03-25T02:37:50.056Z,10.60
2023-03-25T02:40:27.712Z,9.63
2023-03-25T02:43:04.505Z,8.18
2023-03-25T02:45:41.292Z,11.23
2023-03-25T02:48:20.597Z,10.35
2023-03-25T02:50:55.485Z,9.18
2023-03-25T02:53:33.245Z,9.10
2023-03-25T02:56:09.424Z,11.52
2023-03-25T02:58:40.162Z,7.53
2023-03-25T03:01:10.034Z,9.73
2023-03-25T03:03:38.682Z,8.97
2023-03-25T03:06:09.921Z,8.67
2023-03-25T03:09:02.153Z,11.13
2023-03-25T03:11:42.276Z,8.73
2023-03-25T03:14:38.402Z,7.85
2023-03-25T03:17:20.194Z,9.27
2023-03-25T03:19:57.603Z,13.63
2023-03-25T03:22:41.548Z,9.98
2023-03-25T03:25:23.715Z,10.30
2023-03-25T03:28:05.088Z,8.77
2023-03-25T03:30:46.295Z,6.85
2023-03-25T03:33:25.206Z,8.13
2023-03-25T03:36:02.106Z,10.93
2023-03-25T03:38:38.492Z,13.83
2023-03-25T03:41:12.541Z,11.80
2023-03-25T03:43:47.739Z,9.47
2023-03-25T03:46:22.576Z,8.13
2023-03-25T03:48:57.248Z,11.18
2023-03-25T03:51:31.883Z,10.10
2023-03-25T03:54:06.277Z,9.70
2023-03-25T03:56:41.278Z,7.60
2023-03-25T03:59:21.581Z,10.35
2023-03-25T04:02:00.262Z,10.50
2023-03-25T04:04:28.667Z,5.95
2023-03-25T04:07:04.573Z,5.85
2023-03-25T04:09:43.536Z,11.50
2023-03-25T04:12:18.716Z,5.00
2023-03-25T04:14:48.851Z,15.10
2023-03-25T04:17:17.499Z,6.77
2023-03-25T04:19:48.700Z,7.32
2023-03-25T04:22:19.623Z,6.03
2023-03-25T04:24:49.652Z,9.33
2023-03-25T04:27:18.763Z,7.32
2023-03-25T04:29:48.626Z,8.10
2023-03-25T04:32:17.673Z,5.63
2023-03-25T04:34:46.865Z,6.50
2023-03-25T04:37:15.735Z,6.37
2023-03-25T04:39:44.033Z,8.65
2023-03-25T04:42:13.633Z,15.10
2023-03-25T04:44:41.936Z,7.33
2023-03-25T04:47:16.215Z,8.83
2023-03-25T04:49:45.187Z,7.33
2023-03-25T04:52:13.653Z,8.37
2023-03-25T04:54:42.119Z,8.50
2023-03-25T04:57:10.377Z,9.93
2023-03-25T04:59:38.751Z,12.33
2023-03-25T05:02:13.077Z,7.80
2023-03-25T05:04:47.234Z,8.20
2023-03-25T05:07:16.543Z,10.93
2023-03-25T05:09:44.956Z,9.37
2023-03-25T05:12:13.740Z,8.27
2023-03-25T05:14:42.110Z,10.27
2023-03-25T05:17:10.327Z,9.03
2023-03-25T05:19:38.662Z,10.15
2023-03-25T05:22:09.099Z,11.17
2023-03-25T05:24:37.588Z,10.17
2023-03-25T05:27:06.901Z,9.83
2023-03-25T05:29:35.314Z,9.07
2023-03-25T05:32:03.626Z,8.53
2023-03-25T05:34:31.905Z,8.47
2023-03-25T05:37:00.593Z,9.43
2023-03-25T05:39:30.289Z,10.10
2023-03-25T05:42:02.717Z,9.23
2023-03-25T05:44:31.065Z,11.17
2023-03-25T05:47:01.190Z,10.37
2023-03-25T05:49:29.733Z,13.33
2023-03-25T05:51:59.910Z,8.63
2023-03-25T05:54:29.531Z,10.83
2023-03-25T05:56:57.865Z,6.37
2023-03-25T05:59:26.142Z,8.77
2023-03-25T06:01:54.363Z,8.60
2023-03-25T06:04:23.732Z,11.43
2023-03-25T06:06:52.045Z,12.53
2023-03-25T06:09:20.310Z,10.53
2023-03-25T06:11:53.463Z,8.13
2023-03-25T06:14:25.425Z,9.90
2023-03-25T06:16:53.717Z,12.17
2023-03-25T06:19:26.321Z,8.23
2023-03-25T06:21:54.875Z,7.07
2023-03-25T06:24:23.155Z,10.77
2023-03-25T06:26:53.067Z,11.67
2023-03-25T06:29:21.463Z,8.80
2023-03-25T06:31:49.659Z,10.53
2023-03-25T06:34:17.876Z,11.03
2023-03-25T06:36:50.038Z,13.77
2023-03-25T06:39:18.990Z,16.17
2023-03-25T06:41:47.358Z,10.17
2023-03-25T06:44:24.411Z,14.70
2023-03-25T06:47:12.171Z,12.27
2023-03-25T06:49:50.871Z,11.90
2023-03-25T06:52:19.182Z,15.57
2023-03-25T06:54:47.387Z,10.98
2023-03-25T06:57:15.726Z,16.90
2023-03-25T06:59:45.443Z,10.73
2023-03-25T07:02:15.422Z,9.13
2023-03-25T07:04:45.842Z,9.83
2023-03-25T07:07:14.164Z,8.07
2023-03-25T07:09:42.412Z,10.10
2023-03-25T07:12:11.077Z,11.07
2023-03-25T07:14:39.382Z,7.20
2023-03-25T07:17:09.396Z,9.47
2023-03-25T07:19:37.611Z,14.83
2023-03-25T07:22:05.933Z,9.37
2023-03-25T07:24:34.175Z,8.47
2023-03-25T07:27:02.472Z,11.90
2023-03-25T07:29:32.167Z,8.02
2023-03-25T07:32:00.389Z,8.87
2023-03-25T07:34:29.974Z,11.70
2023-03-25T07:36:58.207Z,11.65
2023-03-25T07:39:26.677Z,9.07
2023-03-25T07:41:55.661Z,13.10
2023-03-25T07:44:43.999Z,14.87
2023-03-25T07:47:12.301Z,14.63
2023-03-25T07:49:42.202Z,11.30
2023-03-25T07:52:10.824Z,9.77
2023-03-25T07:54:39.112Z,10.45
2023-03-25T07:57:07.384Z,8.60
2023-03-25T07:59:35.687Z,10.70
2023-03-25T08:02:04.069Z,11.23
2023-03-25T08:04:32.645Z,8.05
2023-03-25T08:07:02.529Z,8.18
2023-03-25T08:09:31.552Z,9.48
2023-03-25T08:11:59.804Z,9.57
2023-03-25T08:14:28.360Z,12.40
2023-03-25T08:16:56.638Z,10.65
2023-03-25T08:19:24.960Z,13.52
2023-03-25T08:21:53.185Z,7.78
2023-03-25T08:24:24.548Z,8.95
2023-03-25T08:26:53.887Z,6.85
2023-03-25T08:29:22.133Z,9.20
2023-03-25T08:31:52.418Z,9.07
2023-03-25T08:34:22.778Z,7.50
2023-03-25T08:36:57.788Z,8.60
2023-03-25T08:39:29.802Z,7.18
2023-03-25T08:41:59.065Z,11.73
2023-03-25T08:44:27.609Z,10.50
2023-03-25T08:46:55.877Z,7.90
2023-03-25T08:49:24.408Z,7.72
2023-03-25T08:51:52.673Z,8.30
2023-03-25T08:54:21.422Z,13.32
2023-03-25T08:56:51.341Z,11.63
2023-03-25T08:59:20.477Z,9.52
2023-03-25T09:01:49.374Z,11.55
2023-03-25T09:04:18.112Z,8.55
2023-03-25T09:06:47.720Z,6.80
2023-03-25T09:09:16.880Z,9.23
2023-03-25T09:11:46.053Z,5.03
2023-03-25T09:14:15.690Z,10.02
2023-03-25T09:16:43.935Z,9.32
2023-03-25T09:19:12.310Z,5.63
2023-03-25T09:21:40.689Z,4.83
2023-03-25T09:24:10.368Z,5.53
2023-03-25T09:26:38.718Z,5.80
2023-03-25T09:29:07.585Z,7.77
2023-03-25T09:31:37.299Z,8.10
2023-03-25T09:34:06.429Z,8.33
2023-03-25T09:36:34.723Z,5.87
2023-03-25T09:39:03.111Z,3.20
2023-03-25T09:42:02.776Z,6.73
2023-03-25T09:44:38.688Z,5.37
2023-03-25T09:47:14.967Z,7.43
2023-03-25T09:49:53.596Z,5.07
2023-03-25T09:52:29.222Z,4.53
2023-03-25T09:55:03.835Z,4.78
2023-03-25T09:57:38.397Z,5.83
2023-03-25T10:00:14.717Z,6.83
2023-03-25T10:02:53.371Z,3.90
2023-03-25T10:05:48.602Z,7.35
2023-03-25T10:08:29.701Z,9.00
2023-03-25T10:11:09.278Z,3.90
2023-03-25T10:13:51.341Z,5.63
2023-03-25T10:16:33.749Z,3.73
2023-03-25T10:19:25.593Z,3.97
2023-03-25T10:22:04.590Z,5.10
2023-03-25T10:24:40.280Z,7.80
2023-03-25T10:27:19.028Z,6.85
2023-03-25T10:29:53.961Z,5.15
2023-03-25T10:32:35.827Z,5.78
2023-03-25T10:35:12.786Z,5.82
2023-03-25T10:37:42.947Z,6.32
2023-03-25T10:40:21.779Z,5.93
2023-03-25T10:43:17.570Z,10.02
2023-03-25T10:45:48.683Z,5.88
2023-03-25T10:48:25.137Z,11.35
2023-03-25T10:51:04.087Z,10.90
2023-03-25T10:53:32.450Z,9.13
2023-03-25T10:56:06.930Z,7.97
2023-03-25T10:58:39.106Z,9.80
2023-03-25T11:01:14.924Z,7.97
2023-03-25T11:03:45.387Z,7.70
2023-03-25T11:06:26.704Z,5.32
2023-03-25T11:08:59.921Z,7.22
2023-03-25T11:11:35.508Z,8.35
2023-03-25T11:14:04.724Z,6.82
2023-03-25T11:16:35.594Z,5.53
2023-03-25T11:19:06.317Z,7.43
2023-03-25T11:21:37.337Z,6.63
2023-03-25T11:24:08.349Z,4.17
2023-03-25T11:26:41.416Z,7.72
2023-03-25T11:29:15.540Z,7.30
2023-03-25T11:31:44.955Z,4.82
2023-03-25T11:34:21.825Z,7.80
2023-03-25T11:36:56.583Z,4.13
2023-03-25T11:39:34.668Z,4.60
2023-03-25T11:42:22.127Z,3.60
2023-03-25T11:44:54.401Z,3.90
2023-03-25T11:47:27.248Z,8.55
2023-03-25T11:49:55.825Z,5.72
2023-03-25T11:52:29.113Z,4.57
2023-03-25T11:54:58.057Z,4.68
2023-03-25T11:57:32.827Z,2.58
2023-03-25T12:00:10.958Z,3.15
2023-03-25T12:02:41.884Z,3.90
2023-03-25T12:05:16.534Z,4.75
2023-03-25T12:07:48.706Z,2.90
2023-03-25T12:10:20.819Z,2.75
2023-03-25T12:13:02.470Z,3.70
2023-03-25T12:15:41.589Z,4.95
2023-03-25T12:18:35.864Z,2.38
2023-03-25T12:21:16.809Z,2.47
2023-03-25T12:24:00.916Z,5.55
2023-03-25T12:26:38.425Z,6.15
2023-03-25T12:29:25.189Z,5.53
2023-03-25T12:32:09.822Z,5.25
2023-03-25T12:34:54.875Z,4.65
2023-03-25T12:37:35.771Z,6.70
2023-03-25T12:40:42.377Z,6.05
2023-03-25T12:43:14.802Z,4.50
2023-03-25T12:46:03.947Z,5.40
2023-03-25T12:48:57.274Z,5.82
2023-03-25T12:51:43.205Z,8.23
2023-03-25T12:54:31.617Z,3.30
2023-03-25T12:57:17.426Z,5.95
2023-03-25T13:00:20.302Z,6.90
2023-03-25T13:03:37.993Z,4.47
2023-03-25T13:06:22.057Z,4.65
2023-03-25T13:08:57.683Z,5.90
2023-03-25T13:11:34.549Z,3.53
2023-03-25T13:14:15.251Z,5.50
2023-03-25T13:16:46.809Z,6.25
2023-03-25T13:19:20.524Z,5.43
2023-03-25T13:21:53.475Z,6.15
2023-03-25T13:24:28.093Z,5.65
2023-03-25T13:27:00.508Z,4.97
2023-03-25T13:29:38.249Z,8.15
2023-03-25T13:32:17.817Z,5.55
2023-03-25T13:34:53.948Z,4.93
2023-03-25T13:37:29.202Z,3.42
2023-03-25T13:40:18.430Z,4.97
2023-03-25T13:42:56.584Z,3.58
2023-03-25T13:45:31.398Z,6.05
2023-03-25T13:48:10.051Z,5.20
2023-03-25T13:50:40.154Z,4.90
2023-03-25T13:53:18.228Z,4.28
2023-03-25T13:55:55.096Z,3.50
2023-03-25T13:59:02.933Z,2.65
2023-03-25T14:01:54.096Z,6.28
2023-03-25T14:04:47.717Z,2.33
2023-03-25T14:07:50.723Z,4.22
2023-03-25T14:10:41.201Z,4.30
2023-03-25T14:13:14.879Z,5.37
2023-03-25T14:15:54.138Z,2.73
2023-03-25T14:18:24.083Z,4.20
2023-03-25T14:20:53.012Z,7.05
2023-03-25T14:23:25.380Z,3.83
2023-03-25T14:25:59.591Z,4.43
2023-03-25T14:28:39.725Z,5.37
2023-03-25T14:31:26.209Z,5.00
2023-03-25T14:34:27.764Z,5.30
2023-03-25T14:37:30.947Z,4.63
2023-03-25T14:40:58.917Z,3.78
2023-03-25T14:43:37.714Z,5.17
2023-03-25T14:46:19.179Z,5.50
2023-03-25T14:48:52.715Z,6.43
2023-03-25T14:51:46.019Z,3.97
2023-03-25T14:54:35.933Z,5.35
2023-03-25T14:57:16.282Z,4.50
2023-03-25T14:59:49.670Z,4.97
2023-03-25T15:02:23.038Z,5.10
2023-03-25T15:04:58.057Z,3.97
2023-03-25T15:07:49.871Z,4.43
2023-03-25T15:10:27.802Z,4.30
2023-03-25T15:13:05.621Z,5.53
2023-03-25T15:15:54.836Z,6.88
2023-03-25T15:19:14.202Z,7.28
2023-03-25T15:22:22.831Z,4.03
2023-03-25T15:24:57.129Z,10.27
2023-03-25T15:27:48.081Z,6.68
2023-03-25T15:30:58.474Z,3.72
2023-03-25T15:33:52.759Z,3.90
2023-03-25T15:36:58.816Z,7.43
2023-03-25T15:39:47.249Z,5.13
2023-03-25T15:42:56.427Z,5.63
2023-03-25T15:45:55.129Z,6.03
2023-03-25T15:49:02.722Z,8.32
2023-03-25T15:51:51.479Z,6.68
2023-03-25T15:54:32.483Z,3.00
2023-03-25T15:57:09.365Z,3.80
2023-03-25T15:59:45.428Z,5.05
2023-03-25T16:02:26.588Z,3.87
2023-03-25T16:04:56.188Z,5.47
2023-03-25T16:07:30.532Z,6.85
2023-03-25T16:10:14.625Z,6.22
2023-03-25T16:12:46.774Z,3.22
2023-03-25T16:15:23.569Z,3.00
2023-03-25T16:17:52.659Z,5.23
2023-03-25T16:20:26.563Z,3.88
2023-03-25T16:22:58.100Z,5.30
2023-03-25T16:25:35.463Z,5.53
2023-03-25T16:28:07.567Z,5.93
2023-03-25T16:30:40.091Z,4.63
2023-03-25T16:33:17.745Z,5.33
2023-03-25T16:35:50.315Z,2.13
2023-03-25T16:38:22.682Z,4.20
2023-03-25T16:40:51.753Z,1.20
2023-03-25T16:43:23.774Z,4.07
2023-03-25T16:45:58.246Z,1.53
2023-03-25T16:48:31.141Z,2.90
2023-03-25T16:51:05.852Z,1.97
2023-03-25T16:53:40.963Z,2.67
2023-03-25T16:56:24.880Z,4.33
2023-03-25T16:59:03.783Z,6.40
2023-03-25T17:01:40.167Z,2.97
2023-03-25T17:04:18.671Z,4.87
2023-03-25T17:06:53.169Z,3.60
2023-03-25T17:09:25.176Z,2.83
2023-03-25T17:11:57.138Z,5.00
2023-03-25T17:14:33.495Z,3.10
2023-03-25T17:17:12.415Z,4.30
2023-03-25T17:19:48.716Z,3.17
2023-03-25T17:22:26.204Z,2.77
2023-03-25T17:24:57.507Z,5.77
2023-03-25T17:27:33.869Z,2.33
2023-03-25T17:30:19.372Z,3.60
2023-03-25T17:32:50.927Z,2.57
2023-03-25T17:35:25.308Z,4.33
2023-03-25T17:37:54.487Z,4.97
2023-03-25T17:40:25.875Z,2.10
2023-03-25T17:42:54.717Z,2.23
2023-03-25T17:45:26.074Z,3.83
2023-03-25T17:47:56.615Z,3.37
2023-03-25T17:50:27.789Z,3.87
2023-03-25T17:52:57.419Z,5.53
2023-03-25T17:55:25.787Z,1.97
2023-03-25T17:57:54.713Z,5.23
2023-03-25T18:00:22.927Z,5.07
2023-03-25T18:02:51.406Z,5.07
2023-03-25T18:05:21.101Z,3.47
2023-03-25T18:07:49.336Z,4.97
2023-03-25T18:10:22.319Z,2.33
2023-03-25T18:12:50.517Z,4.83
2023-03-25T18:15:18.962Z,4.03
2023-03-25T18:17:47.199Z,5.77
2023-03-25T18:20:19.321Z,7.50
2023-03-25T18:22:48.997Z,5.17
2023-03-25T18:25:17.654Z,5.73
2023-03-25T18:27:52.719Z,5.43
2023-03-25T18:30:26.467Z,4.33
2023-03-25T18:32:54.913Z,6.17
2023-03-25T18:35:23.589Z,6.17
2023-03-25T18:37:53.180Z,4.20
2023-03-25T18:40:24.353Z,7.50
2023-03-25T18:42:55.669Z,5.37
2023-03-25T18:45:26.536Z,2.37
2023-03-25T18:47:55.838Z,3.73
2023-03-25T18:50:31.473Z,6.07
2023-03-25T18:53:02.000Z,5.60
2023-03-25T18:55:32.910Z,2.57
2023-03-25T18:58:01.266Z,4.47
2023-03-25T19:00:34.853Z,4.83
2023-03-25T19:03:04.043Z,7.63
2023-03-25T19:05:32.938Z,4.57
2023-03-25T19:08:05.490Z,6.47
2023-03-25T19:10:35.909Z,4.87
2023-03-25T19:13:04.166Z,3.43
2023-03-25T19:15:32.461Z,7.30
2023-03-25T19:18:01.694Z,8.73
2023-03-25T19:20:33.711Z,7.90
2023-03-25T19:23:05.798Z,6.47
2023-03-25T19:25:34.177Z,4.37
2023-03-25T19:28:02.423Z,7.13
2023-03-25T19:30:31.905Z,9.13
2023-03-25T19:33:01.811Z,5.80
2023-03-25T19:35:32.343Z,9.30
2023-03-25T19:38:03.574Z,7.63
2023-03-25T19:40:36.058Z,11.53
2023-03-25T19:43:06.335Z,7.67
2023-03-25T19:45:35.582Z,9.37
2023-03-25T19:48:04.028Z,8.00
2023-03-25T19:50:34.473Z,11.90
2023-03-25T19:53:06.147Z,7.93
2023-03-25T19:55:35.857Z,11.63
2023-03-25T19:58:04.156Z,15.47
2023-03-25T20:00:32.354Z,13.37
2023-03-25T20:03:01.948Z,15.67
2023-03-25T20:05:32.438Z,9.40
2023-03-25T20:08:01.603Z,10.53
2023-03-25T20:10:31.507Z,12.70
2023-03-25T20:13:01.175Z,12.50
2023-03-25T20:15:29.415Z,13.10
2023-03-25T20:17:57.738Z,13.13
2023-03-25T20:20:26.255Z,16.70
2023-03-25T20:22:55.483Z,16.80
2023-03-25T20:25:26.164Z,11.27
2023-03-25T20:27:55.548Z,13.37
2023-03-25T20:30:25.548Z,14.20
2023-03-25T20:32:53.881Z,15.47
2023-03-25T20:35:22.586Z,15.70
2023-03-25T20:37:52.005Z,13.23
2023-03-25T20:40:25.398Z,11.77
2023-03-25T20:42:59.851Z,6.17
2023-03-25T20:45:30.338Z,5.87
2023-03-25T20:47:59.283Z,5.67
2023-03-25T20:50:27.645Z,12.10
2023-03-25T20:52:55.892Z,9.40
2023-03-25T20:55:24.580Z,13.23
2023-03-25T20:57:53.092Z,10.43
2023-03-25T21:00:21.335Z,12.30
2023-03-25T21:02:52.397Z,10.37
2023-03-25T21:05:20.841Z,12.83
2023-03-25T21:07:49.133Z,10.40
2023-03-25T21:10:17.956Z,10.77
2023-03-25T21:12:47.110Z,10.90
2023-03-25T21:15:15.895Z,8.83
2023-03-25T21:17:44.552Z,15.27
2023-03-25T21:20:14.401Z,13.73
2023-03-25T21:22:44.690Z,17.13
2023-03-25T21:25:16.535Z,13.77
2023-03-25T21:27:46.625Z,11.13
2023-03-25T21:30:16.091Z,14.90
2023-03-25T21:32:44.377Z,11.50
2023-03-25T21:35:14.105Z,21.33
2023-03-25T21:37:42.383Z,15.93
2023-03-25T21:40:12.817Z,19.13
2023-03-25T21:42:42.012Z,19.33
2023-03-25T21:45:13.442Z,17.50
2023-03-25T21:47:42.484Z,14.07
2023-03-25T21:50:14.818Z,15.43
2023-03-25T21:52:46.483Z,11.83
2023-03-25T21:55:16.897Z,16.53
2023-03-25T21:57:47.533Z,19.63
2023-03-25T22:00:19.492Z,14.67
2023-03-25T22:02:48.785Z,18.97
2023-03-25T22:05:18.645Z,19.50
2023-03-25T22:07:47.090Z,16.00
2023-03-25T22:10:15.351Z,17.87
2023-03-25T22:12:43.635Z,14.70
2023-03-25T22:15:12.505Z,15.90
2023-03-25T22:17:41.018Z,14.37
2023-03-25T22:20:12.092Z,22.57
2023-03-25T22:22:42.664Z,14.80
2023-03-25T22:25:11.329Z,16.70
2023-03-25T22:27:39.549Z,15.20
2023-03-25T22:30:10.431Z,15.07
2023-03-25T22:32:38.708Z,14.17
2023-03-25T22:35:08.772Z,16.77
2023-03-25T22:37:37.640Z,17.53
2023-03-25T22:40:10.176Z,12.53
2023-03-25T22:42:38.487Z,16.17
2023-03-25T22:45:09.048Z,14.37
2023-03-25T22:47:37.486Z,18.27
2023-03-25T22:50:07.046Z,14.80
2023-03-25T22:52:35.282Z,10.90
2023-03-25T22:55:03.794Z,15.50
2023-03-25T22:57:33.461Z,10.93
2023-03-25T23:00:02.047Z,11.73
2023-03-25T23:02:30.568Z,11.63
2023-03-25T23:04:58.992Z,11.37
2023-03-25T23:07:27.315Z,11.47
2023-03-25T23:09:55.856Z,14.80
2023-03-25T23:12:26.124Z,16.73
2023-03-25T23:14:57.590Z,13.33
2023-03-25T23:17:27.603Z,12.73
2023-03-25T23:19:56.122Z,16.07
2023-03-25T23:22:25.090Z,26.60
2023-03-25T23:24:53.768Z,24.30
2023-03-25T23:27:22.353Z,14.03
2023-03-25T23:29:50.629Z,17.27
2023-03-25T23:32:20.204Z,17.83
2023-03-25T23:34:51.188Z,12.23
2023-03-25T23:37:19.510Z,16.93
2023-03-25T23:39:47.786Z,20.00
2023-03-25T23:42:16.341Z,21.93
2023-03-25T23:44:45.268Z,22.17
2023-03-25T23:47:13.623Z,13.50
2023-03-25T23:49:44.212Z,23.00
2023-03-25T23:52:13.554Z,19.83
2023-03-25T23:54:42.922Z,19.73
2023-03-25T23:57:11.376Z,26.07
2023-03-25T23:59:39.740Z,20.87
